Decoded Metar for LFBI (POITIERS in FRANCE) (IATA:PIS) | Meteo·Mobile Aviation Weather
aviador You're here:

LFBI Decoded Metar

POITIERS in FRANCE
Report Time2019-02-21 23:30:00
UTC Time2019-02-21 23:41:20
Flight Rules mvfr MVFR
Wind330° at 03 kt
W.Decomp.*RWY 03: 1.5 kt HW 2.6 kt LCW
W.Rank330° ranks 15
Current wind is below 330° avg. (5.8)
Visibility5000 m
Phenomena:Mist
Clouds:N/A
Expected CloudBase > 400 ft AGL from Temp-Dew spread
CeilingNone
Temp06°C (ISA -8)
Dew Point05°C (93% RH)
AAT3.8°C
QNH1031 hPa
Density Alt-1,086 ft
Elevation394 ft
Report Wrong Elevation
Raw Report
METAR LFBI 212330Z AUTO 33003KT 5000 BR NSC 06/05 Q1031 NOSIG=

Extra information for LFBI:More info

Metar Taf Metar & Taf Last 4 Metars F.Rules Stats Wind Profile Meteogram Temp Stats Airport Information Weather charts Add Link Nearby VenuesMetar ALERT Operation Metar Decoded Social comments